André Neves

Recruteur en chef - Santos
17 Juil 2027
Samedi
Processus

Personnalité

Adaptabilité (20) Ambition (1) Controverse (8) Loyauté (3) Pression (15) Professionnalisme (14) Sportivité (12) Tempérament (5)

Profil

Style d'entraînement Démocratique
Diplôme Continental A
Détermination 14
Gestion des joueurs 8
Motivation 8
Discipline 14
Satisfaction professionnelle
100%
Fatigue
0%
Rôle Recruteur en chef
Salaire 43.2K p/s
Contrat 14.03.2030

Performance

Comportement Bon
Efficacité de l'entraînement
38%
Développement des joueurs
30%
Prévention des blessures
75%
Mise en place tactique
50%

Événements récents

A participé à une réunion de recrutement maintenant
A participé à une réunion de recrutement 7j
A recommandé une cible de transfert 7j
A recommandé une cible de transfert 7j
A évalué un joueur 7j
A observé un match 7j
A recommandé une cible de transfert 14j
A recommandé une cible de transfert 14j

Suivi en cours

252
Joueur Club Statut Capacité Confiance Observé Dernière observation Dernier vote
Nicolás Barros Schelotto Osasuna Actif 121 / 136 40% 1 06.07.2027 -
Alphadjo Cissé Pisa Actif 126 / 122 40% 1 06.07.2027 -
Borna Knezović Casarano Actif 109 / 100 40% 1 06.07.2027 -
Mateo Ponte Botafogo Actif 119 / 129 79% 1 28.06.2027 Approuver
Liam Delap Nottingham Forest Actif 141 / 159 40% 3 14.06.2027 -
Ismaïla Sarr Crystal Palace Actif 147 / 138 40% 4 14.06.2027 -
Callum O'Hare Sheffield United Actif 131 / 125 40% 2 14.06.2027 -
Loum Tchaouna Coventry City Actif 147 / 147 40% 4 02.06.2027 -
Jacob Ramsey Newcastle United Actif 144 / 143 40% 2 02.06.2027 -
Igor Burnley Actif 138 / 145 40% 6 01.06.2027 -
Federico Pereira Huracán Négociation 135 / 135 66% 1 01.06.2027 Approuver
Milan van Ewijk Coventry City Actif 134 / 141 40% 1 01.06.2027 -
Rodrigo Muniz Fulham Actif 139 / 146 40% 5 30.05.2027 -
Santiago Castro AS Roma Actif 142 / 148 40% 2 30.05.2027 -
Tyler Adams Bournemouth Actif 153 / 153 40% 1 30.05.2027 -
Amadou Onana Newcastle United Actif 157 / 144 40% 1 30.05.2027 -
Manu Koné AS Roma Actif 166 / 172 40% 1 30.05.2027 -
Ronald Swansea City Actif 135 / 121 40% 1 30.05.2027 -
Carlos Augusto Inter Actif 154 / 160 40% 5 27.05.2027 -
Aune Heggebø West Bromwich Albion Actif 133 / 122 40% 9 27.05.2027 -
Jean-Philippe Mateta Crystal Palace Actif 151 / 144 40% 4 27.05.2027 -
Thiago Brentford Actif 148 / 158 40% 4 27.05.2027 -
Khvicha Kvaratskhelia Inter Actif 167 / 171 40% 1 27.05.2027 -
Boubacar Kamara Aston Villa Actif 171 / 172 40% 1 27.05.2027 Plus d'infos
Oliver Skipp Leicester City Actif 135 / 132 40% 1 27.05.2027 -
Japhet Tanganga Sheffield United Actif 127 / 123 40% 1 27.05.2027 -
Taiwo Awoniyi Coventry City Actif 141 / 126 40% 3 24.05.2027 -
Assane Diao Como Actif 153 / 145 40% 5 24.05.2027 -
Tommy Conway Middlesbrough Actif 133 / 135 40% 3 23.05.2027 -
Oli McBurnie Hull City Actif 136 / 140 40% 3 22.05.2027 -
Gianluca Scamacca Atalanta Actif 145 / 159 40% 3 21.05.2027 Observer
Cameron Archer Southampton Actif 124 / 134 40% 1 21.05.2027 -
Nicolò Barella Inter Actif 162 / 167 40% 1 21.05.2027 -
Marcus Edwards Burnley Actif 144 / 149 40% 1 21.05.2027 -
George Hirst Stoke City Actif 130 / 133 40% 5 19.05.2027 -
Léo Scienza Southampton Actif 137 / 132 40% 2 18.05.2027 -
Dango Ouattara Brentford Actif 144 / 155 40% 3 18.05.2027 -
Julio Enciso Ipswich Town Actif 149 / 152 40% 3 18.05.2027 -
Zian Flemming Ipswich Town Actif 127 / 137 40% 10 18.05.2027 -
Yoane Wissa Newcastle United Actif 138 / 132 40% 3 18.05.2027 -
Tom Fellows Southampton Actif 135 / 140 40% 1 18.05.2027 -
Brennan Johnson Everton Actif 150 / 145 40% 5 17.05.2027 -
Gonçalo Ramos AC Milan Perdu 152 / 162 40% 1 15.05.2027 -
Sam Surridge Leeds United Actif 135 / 138 40% 4 14.05.2027 -
Jeon Jin-Woo Sheffield Wednesday Actif 139 / 118 40% 3 14.05.2027 -
Fashion Sakala MC Alger Actif 132 / 135 40% 3 14.05.2027 -
Thiago Almada Fiorentina Actif 146 / 150 40% 4 13.05.2027 -
Eddie Nketiah Crystal Palace Actif 142 / 133 40% 3 11.05.2027 -
Christian Pulisic AC Milan Actif 168 / 158 40% 2 10.05.2027 -
Mateo Pellegrino Fiorentina Actif 142 / 132 40% 11 09.05.2027 -
Dávid Strelec Middlesbrough Actif 135 / 130 40% 3 09.05.2027 -
Ilyas Ansah Hull City Actif 125 / 136 40% 2 08.05.2027 -
João Félix Aston Villa Actif 161 / 162 40% 1 08.05.2027 -
Kevin Fulham Actif 145 / 151 40% 3 07.05.2027 -
Charles De Ketelaere Atalanta Actif 154 / 143 40% 1 07.05.2027 Plus d'infos
Konan N'Dri Lecce Actif 135 / 132 40% 2 05.05.2027 -
Kevin Schade Brentford Actif 151 / 148 40% 3 05.05.2027 -
Rodrigo Gomes Wolverhampton Actif 143 / 130 40% 1 05.05.2027 -
Mikkel Damsgaard Brentford Actif 142 / 153 40% 1 01.05.2027 -
Igor Jesus Nottingham Forest Actif 138 / 138 40% 1 30.04.2027 -
Juan Brunetta Torino Actif 142 / 141 40% 10 26.04.2027 -
Gonzalo Fulham Actif 138 / 158 40% 4 24.04.2027 -
Jarrod Bowen West Ham United Actif 148 / 164 40% 1 24.04.2027 -
Jay Stansfield Birmingham Actif 123 / 139 40% 1 23.04.2027 -
Marcus Thuram Inter Actif 171 / 163 40% 2 22.04.2027 -
Rumarn Burrell Queens Park Rangers Actif 120 / 112 40% 5 20.04.2027 -
Luís Henrique Inter Actif 146 / 133 40% 2 18.04.2027 -
Kerem Aktürkoğlu Fenerbahce Actif 137 / 133 40% 7 18.04.2027 -
André Wolverhampton Actif 140 / 132 40% 7 15.04.2027 -
Youssef En-Nesyri Al-Ittihad Actif 140 / 141 40% 6 15.04.2027 -
Pablo Felipe West Ham United Actif 141 / 135 40% 5 14.04.2027 -
Mostafa Mohamed Konyaspor Actif 135 / 131 40% 1 14.04.2027 -
Claudio Spinelli Vasco da Gama Actif 130 / 124 40% 9 13.04.2027 -
Emam Ashour Al Ahly Actif 137 / 145 40% 1 13.04.2027 -
Isma Ruiz Córdoba Actif 132 / 120 40% 1 13.04.2027 -
Vitinho Internacional Actif 124 / 124 40% 5 08.04.2027 -
Yousef Salech Cardiff City Actif 123 / 135 40% 5 08.04.2027 -
Nicolò Zaniolo Udinese Actif 145 / 145 40% 1 08.04.2027 -
Santiago Pierotti Lecce Actif 137 / 132 40% 2 07.04.2027 -
Alessio Zerbin Frosinone Actif 137 / 124 40% 1 07.04.2027 -
Erick Pulga Bahia Actif 134 / 135 40% 1 07.04.2027 -
Daniel Muñoz Nottingham Forest Actif 142 / 150 40% 1 07.04.2027 -
Victor Torp Coventry City Actif 124 / 118 40% 1 07.04.2027 -
Joe Gelhardt Hull City Actif 133 / 136 40% 4 06.04.2027 -
Nikola Vlašić Torino Actif 150 / 143 40% 3 03.04.2027 -
Mateo Cassierra Atlético Mineiro Actif 131 / 125 40% 8 03.04.2027 -
Clayton Olympiacos Actif 139 / 135 40% 1 02.04.2027 -
Steven Bergwijn Al-Ittihad Actif 156 / 137 40% 9 01.04.2027 -
Francisco Moura Penafiel Actif 135 / 129 40% 2 31.03.2027 -
Iqraam Rayners Mamelodi Sundowns Actif 142 / 138 40% 2 31.03.2027 -
Lovro Zvonarek Estrela da Amadora Actif 118 / 126 40% 1 31.03.2027 -
Gabriel Sara Galatasaray Actif 150 / 136 40% 3 29.03.2027 -
Alberto Costa Porto Actif 137 / 148 40% 7 29.03.2027 -
Dinis Pinto Moreirense Actif 133 / 133 40% 3 29.03.2027 -
Jhon Jhon Zenit Actif 141 / 137 40% 2 29.03.2027 -
Iwan Morgan Grimsby Town Actif 109 / 112 40% 1 29.03.2027 -
Zakaria Aboukhlal Torino Actif 143 / 131 40% 1 29.03.2027 -
William Gomes Porto Actif 139 / 151 40% 6 25.03.2027 -
Ângelo Al-Nassr Actif 132 / 148 40% 2 25.03.2027 -
João Carvalho Estoril Praia Actif 130 / 130 40% 2 25.03.2027 -
Arthur Cabral Botafogo Actif 133 / 129 40% 4 25.03.2027 -
Samuel Dahl Benfica Actif 134 / 130 40% 4 24.03.2027 -
Geny Sporting CP Actif 144 / 143 40% 8 23.03.2027 -
Mario Dorgeles Braga Actif 130 / 129 40% 3 23.03.2027 -
Gabriel Silva Braga Actif 131 / 133 40% 3 21.03.2027 -
Chuchu Ramírez Nacional Actif 131 / 132 40% 7 20.03.2027 -
Figueiredo Alverca Actif 122 / 136 40% 4 20.03.2027 -
Erik Prekop Gornik Zabrze Actif 123 / 120 40% 1 17.03.2027 -
Sergi Altimira Sporting CP Actif 141 / 140 40% 6 16.03.2027 -
Tetê Grêmio Actif 133 / 127 40% 1 16.03.2027 -
Yuri Alberto Corinthians Actif 138 / 143 40% 14 13.03.2027 -
Rodrigo Castillo Fluminense Actif 130 / 137 40% 3 13.03.2027 -
Zeki Amdouni Burnley Actif 129 / 134 40% 1 11.03.2027 -
Jonas Wind Braga Actif 134 / 135 40% 4 09.03.2027 -
Wilson Isidor Sunderland Actif 144 / 140 40% 1 09.03.2027 -
Enzo Loiodice KAA Gent Actif 135 / 117 40% 1 08.03.2027 -
Ivan Toney Al-Ahli Actif 144 / 139 40% 1 05.03.2027 -
Bitello Empoli Actif 138 / 146 40% 2 04.03.2027 -
Carlos Vinícius Grêmio Actif 132 / 127 40% 2 02.03.2027 -
Galeno Al-Ahli Actif 158 / 160 40% 6 28.02.2027 -
Luciano Juba Bahia Actif 133 / 135 40% 6 26.02.2027 -
Francis Amuzu Grêmio Actif 128 / 135 40% 1 26.02.2027 -
Stav Toriel Hapoel Tel Aviv Actif 135 / 117 40% 2 24.02.2027 -
Richarlison Tottenham Actif 148 / 146 40% 5 20.02.2027 -
Armando Broja Burnley Actif 143 / 135 40% 1 19.02.2027 -
Roberto Fernández Braga Actif 143 / 131 40% 7 18.02.2027 -
Luis Sinisterra Cruzeiro Actif 139 / 133 40% 4 17.02.2027 -
Malcom Al Jazira Actif 146 / 161 40% 5 17.02.2027 -
Andrea Pinamonti Lazio Actif 134 / 145 40% 3 17.02.2027 -
Cristian Medina Botafogo Actif 132 / 132 40% 1 17.02.2027 -
Masoud Ebrahimi Sepahan Actif 118 / 138 40% 3 16.02.2027 -
Domagoj Drožđek Tractor Actif 120 / 132 40% 2 16.02.2027 -
Danylo Sikan Anderlecht Actif 128 / 128 40% 1 14.02.2027 -
Yanis Begraoui Estoril Praia Actif 144 / 130 40% 3 10.02.2027 -
Leon Bailey Olympiacos Actif 138 / 135 40% 1 06.02.2027 Plus d'infos
Lucas Paquetá Flamengo Actif 146 / 134 40% 7 04.02.2027 -
Jefferson Savarino Fluminense Perdu 139 / 129 40% 4 04.02.2027 Observer
Hwang Hee-Chan Wolverhampton Actif 131 / 121 40% 1 02.02.2027 -
Tomás Araújo Benfica Actif 151 / 145 40% 3 01.02.2027 -
Pedrinho Shakhtar Actif 139 / 129 40% 4 31.01.2027 -
Pau Víctor Estrela da Amadora Actif 134 / 127 40% 10 30.01.2027 -
Ángel Correa River Plate Actif 146 / 136 40% 2 30.01.2027 -
Nordi Mukiele Sunderland Actif 152 / 157 40% 1 29.01.2027 -
Sidney Lima Braga Actif 137 / 122 40% 1 29.01.2027 -
Rafael Navarro St. Louis CITY SC Actif 121 / 127 40% 1 22.01.2027 -
Marcos Antonio Sport Recife Actif 138 / 146 40% 8 21.01.2027 -
Juninho Pumas UNAM Actif 138 / 118 40% 1 21.01.2027 -
Adrien Truffert Bournemouth Actif 153 / 156 40% 1 21.01.2027 -
Gustavo Mantuan Zenit Actif 141 / 131 40% 1 21.01.2027 -
Nuno Moreira Vasco da Gama Actif 128 / 134 40% 1 19.01.2027 -
Santi García Gil Vicente Actif 125 / 132 40% 1 19.01.2027 -
Samuel Lino Flamengo Actif 135 / 131 40% 5 16.01.2027 -
Diego Costa Krasnodar Actif 139 / 149 40% 2 15.01.2027 -
Adriano Bertaccini Anderlecht Actif 129 / 122 40% 1 12.01.2027 -
Matheuzinho Corinthians Actif 126 / 137 40% 5 05.01.2027 -
Hugo Cuypers Monterrey Actif 126 / 117 40% 1 04.01.2027 -
Jesús Orozco Chiquete Cruz Azul Actif 127 / 124 40% 1 02.01.2027 -
Lucas Piton Vasco da Gama Actif 134 / 126 40% 1 02.01.2027 -
Brooke Norton-Cuffy Hull City Actif 137 / 134 40% 1 01.01.2027 -
Agustín Giay Palmeiras Actif 128 / 141 40% 1 21.12.2026 -
Víctor Guzmán Monterrey Actif 134 / 138 40% 1 19.12.2026 -
Braian Aguirre Internacional Actif 127 / 121 40% 1 17.12.2026 -
Victor Froholdt Porto Actif 143 / 168 40% 4 15.12.2026 -
Pedro Bicalho Qarabag Actif 128 / 126 40% 1 15.12.2026 -
Cauan Barros Vasco da Gama Actif 126 / 130 40% 1 14.12.2026 -
Ollie Watkins Al-Hilal Actif 144 / 148 40% 1 13.12.2026 -
Keinan Davis Udinese Actif 136 / 142 40% 1 13.12.2026 -
José Hurtado Bragantino Actif 132 / 133 40% 1 10.12.2026 -
Erik Lira Cruz Azul Actif 133 / 140 40% 1 10.12.2026 -
Joaquim Tigres Actif 139 / 120 40% 1 09.12.2026 -
Gustaf Lagerbielke Braga Actif 138 / 133 40% 1 09.12.2026 -
Alan Varela Porto Actif 152 / 133 40% 6 08.12.2026 -
Caio Alexandre Bahia Actif 131 / 136 40% 1 08.12.2026 -
Lucas Pires Burnley Actif 127 / 122 40% 1 07.12.2026 -
Musab Al-Juwayr Al-Qadisiyah Actif 123 / 132 40% 1 07.12.2026 -
Tyrell Malacia Derby County Actif 137 / 125 40% 1 05.12.2026 -
Metinho Luzern Actif 126 / 139 40% 1 05.12.2026 -
Franco Ibarra Rosario Central Actif 128 / 132 40% 1 03.12.2026 -
Wagner Leonardo Grêmio Actif 129 / 122 40% 1 03.12.2026 -
Santiago Sosa Vasco da Gama Actif 129 / 139 40% 1 03.12.2026 -
Wendel Zenit Actif 135 / 134 40% 5 29.11.2026 -
Pepê Porto Actif 153 / 149 40% 5 29.11.2026 -
Carlos Álvarez Club America Actif 141 / 126 40% 2 29.11.2026 -
Danilo Botafogo Actif 141 / 142 40% 3 28.11.2026 -
Ricardo Pepi Napoli Actif 138 / 150 40% 1 27.11.2026 -
Fredrik Aursnes Benfica Actif 156 / 137 40% 6 26.11.2026 -
Esequiel Barco Spartak Moscow Actif 148 / 138 40% 2 26.11.2026 -
Hwang In-Beom Porto Actif 144 / 150 40% 2 26.11.2026 -
Vanderson Monaco Actif 143 / 144 40% 3 22.11.2026 -
Matheus Pereira Cruzeiro Actif 148 / 141 40% 3 22.11.2026 -
Wesley AS Roma Actif 151 / 148 40% 1 21.11.2026 -
Lucas Torreira Galatasaray Perdu 155 / 155 40% 2 20.11.2026 Plus d'infos
Oussama Idrissi Ferencvaros Actif 132 / 147 40% 1 20.11.2026 -
Gérson Cruzeiro Actif 137 / 134 40% 5 19.11.2026 -
Matías Fernández-Pardo Newcastle United Actif 140 / 136 40% 2 19.11.2026 -
Jhon Arias Palmeiras Actif 146 / 149 40% 4 19.11.2026 -
Iván Fresneda Sporting CP Actif 142 / 136 40% 2 16.11.2026 -
Andreas Pereira Palmeiras Actif 136 / 129 40% 7 13.11.2026 -
Agustín Canobbio Fluminense Actif 140 / 140 40% 1 12.11.2026 -
Andrés Gómez Vasco da Gama Actif 129 / 136 40% 2 11.11.2026 -
Jeff Ekhator Juventus Actif 129 / 122 40% 2 05.11.2026 -
Carlos Vicente Udinese Actif 136 / 134 40% 1 05.11.2026 -
Agustín Palavecino Cruz Azul Actif 141 / 148 40% 1 02.11.2026 -
Víctor Gómez Braga Actif 141 / 145 40% 3 31.10.2026 -
Julian Palacios Feyenoord Actif 143 / 153 40% 4 28.10.2026 -
Rodrigo Garro Corinthians Actif 143 / 137 40% 3 26.10.2026 -
Dwight McNeil Crystal Palace Actif 142 / 139 40% 1 25.10.2026 -
Mathys Tel Stade Rennais Actif 147 / 143 40% 1 24.10.2026 -
Mauro Júnior PSV Actif 145 / 148 40% 2 21.10.2026 -
Jean Lucas Bahia Actif 138 / 130 40% 1 20.10.2026 -
Pedro Zenit Actif 138 / 134 40% 1 14.10.2026 -
Joaquín Piquerez Palmeiras Actif 133 / 129 40% 2 13.10.2026 -
Arthur Internacional Actif 146 / 134 40% 3 11.10.2026 -
Brais Méndez Columbus Crew Actif 157 / 157 40% 2 11.10.2026 -
Adryelson Al Wasl Actif 125 / 133 40% 1 11.10.2026 -
Christian Krasnodar Actif 135 / 130 40% 1 11.10.2026 -
Heorhii Sudakov Benfica Actif 141 / 146 40% 4 04.10.2026 -
Taty Castellanos West Ham United Actif 154 / 155 40% 1 04.10.2026 -
Fábio Carvalho Brentford Actif 129 / 141 40% 1 04.10.2026 -
Abner Vinicius Olympique Lyonnais Actif 129 / 130 40% 1 01.10.2026 -
Renan Lodi Atlético Mineiro Actif 134 / 133 40% 1 30.09.2026 -
Alejandro Zendejas Club America Actif 138 / 129 40% 1 28.09.2026 -
Pablo Rosario Porto Actif 138 / 133 40% 3 27.09.2026 -
Leandro Barreiro Benfica Actif 146 / 140 40% 2 27.09.2026 -
Dodo Fiorentina Actif 144 / 150 40% 3 26.09.2026 -
Igor Paixão Olympique de Marseille Actif 138 / 133 40% 6 25.09.2026 -
Dominic Calvert-Lewin FC Nantes Actif 136 / 139 40% 1 25.09.2026 -
Mathías Villasanti Grêmio Actif 131 / 140 40% 1 23.09.2026 -
Robert FC Copenhagen Actif 127 / 125 40% 2 22.09.2026 -
Luis Suárez PSV Actif 152 / 159 40% 2 18.09.2026 -
Jens Odgaard Bologna Actif 131 / 131 40% 1 18.09.2026 -
Will Lankshear Middlesbrough Actif 127 / 117 40% 1 16.09.2026 -
Mihailo Ivanović Millwall Actif 118 / 137 40% 1 16.09.2026 -
Giovani Lo Celso AC Milan Actif 144 / 150 40% 1 14.09.2026 -
Alexander Bah Benfica Actif 131 / 138 40% 1 11.09.2026 -
Borja Sainz Porto Actif 142 / 144 40% 2 04.09.2026 -
Nicolás Domínguez Nottingham Forest Actif 133 / 140 40% 1 03.09.2026 -
Ramiro Hernandes Belgrano Actif 121 / 124 40% 1 28.08.2026 -
Mauro Arambarri River Plate Actif 149 / 156 40% 1 27.08.2026 -
Carlos Alcaraz Everton Actif 143 / 139 40% 1 27.08.2026 -
Caio Henrique Ajax Actif 141 / 151 40% 1 24.08.2026 -
Matheus Gonçalves Al-Ahli Actif 116 / 116 40% 1 24.08.2026 -
Dodi Lukébakio Benfica Actif 153 / 133 40% 1 21.08.2026 -
Giacomo Raspadori Atalanta Actif 153 / 141 40% 1 21.08.2026 -
Gianluca Prestianni Benfica Actif 123 / 129 40% 1 19.08.2026 -
Evander FC Cincinnati Actif 140 / 132 40% 1 11.08.2026 -
Rafael Leão Galatasaray Actif 169 / 147 40% 1 11.08.2026 -
João Gomes Aston Villa Actif 129 / 138 40% 1 08.08.2026 -
Emiliano Buendía Aston Villa Actif 136 / 151 40% 1 07.08.2026 -
Borja Mayoral Getafe Actif 132 / 150 40% 1 05.08.2026 -
Giuliano Simeone Atlético Madrid Actif 155 / 154 40% 1 05.08.2026 -
Gabriel Martinelli Arsenal Actif 163 / 149 40% 1 01.08.2026 -